Time;durP1;ratioP1;P1;durP2;ratioP2;P2;SDS_P1;SDS_P2;PMS_P1;PMS_P2;Temp;Humidity;BMP_temperature;BMP_pressure;BME280_temperature;BME280_humidity;BME280_pressure;Samples;Min_cycle;Max_cycle;Signal;HPM_P1;HPM_P2
2022/12/05 00:01:50;;;;;;;53.27;41.60;;;;;;;1.43;100.00;101608.81;4939571;28;20070;-86
2022/12/05 00:04:15;;;;;;;54.10;41.40;;;;;;;1.40;100.00;101616.25;4950150;28;20038;-86
2022/12/05 00:06:42;;;;;;;51.47;41.90;;;;;;;1.35;100.00;101617.47;4950091;28;20042;-87
2022/12/05 00:09:09;;;;;;;52.40;41.70;;;;;;;1.41;100.00;101624.13;4934248;28;20575;-85
2022/12/05 00:11:36;;;;;;;52.50;41.80;;;;;;;1.44;100.00;101621.19;4950741;28;20171;-85
2022/12/05 00:14:03;;;;;;;52.83;42.17;;;;;;;1.41;100.00;101617.94;4950244;28;20396;-84
2022/12/05 00:16:31;;;;;;;53.43;42.07;;;;;;;1.33;100.00;101622.13;4950088;28;20467;-85
2022/12/05 00:18:59;;;;;;;52.13;41.50;;;;;;;1.45;100.00;101622.03;4949833;28;20813;-85
2022/12/05 00:21:27;;;;;;;53.47;43.27;;;;;;;1.35;100.00;101627.31;4950067;28;20042;-86
2022/12/05 00:23:54;;;;;;;52.13;43.10;;;;;;;1.28;100.00;101596.78;4949897;28;20046;-84
2022/12/05 00:26:20;;;;;;;54.23;42.37;;;;;;;1.42;100.00;101614.31;4949436;28;20035;-86
2022/12/05 00:28:47;;;;;;;52.13;42.60;;;;;;;1.38;100.00;101603.03;4950802;28;20126;-85
2022/12/05 00:31:15;;;;;;;49.20;41.37;;;;;;;1.37;100.00;101609.34;4953749;28;20043;-83
2022/12/05 00:33:41;;;;;;;51.83;42.03;;;;;;;1.32;100.00;101598.22;4953181;28;20034;-84
2022/12/05 00:36:14;;;;;;;50.50;41.57;;;;;;;1.44;100.00;101609.66;4953307;28;20046;-85
2022/12/05 00:38:41;;;;;;;52.43;42.70;;;;;;;1.45;100.00;101603.34;4952807;28;20068;-85
2022/12/05 00:41:09;;;;;;;52.63;42.80;;;;;;;1.47;100.00;101601.38;4942146;28;20641;-85
2022/12/05 00:43:35;;;;;;;52.33;42.60;;;;;;;1.59;100.00;101607.47;4940198;28;20035;-84
2022/12/05 00:46:06;;;;;;;49.53;40.53;;;;;;;1.49;100.00;101605.59;4953091;28;20089;-85
2022/12/05 00:48:33;;;;;;;49.10;40.97;;;;;;;1.51;100.00;101600.97;4953345;28;20055;-86
2022/12/05 00:51:07;;;;;;;51.77;42.17;;;;;;;1.51;100.00;101605.50;4953446;28;20057;-87
2022/12/05 00:53:33;;;;;;;49.90;41.63;;;;;;;1.44;100.00;101599.84;4953755;28;20039;-85
2022/12/05 00:56:04;;;;;;;49.80;41.70;;;;;;;1.51;100.00;101598.31;4953862;28;20046;-86
2022/12/05 00:58:30;;;;;;;51.80;41.00;;;;;;;1.46;100.00;101600.53;4950037;28;20070;-85
2022/12/05 01:00:56;;;;;;;50.20;41.17;;;;;;;1.48;100.00;101601.25;4953681;28;20038;-86
2022/12/05 01:03:21;;;;;;;49.47;40.93;;;;;;;1.52;100.00;101600.00;4953436;28;20094;-87
2022/12/05 01:05:46;;;;;;;50.10;41.77;;;;;;;1.52;100.00;101605.34;4953118;28;20043;-86
2022/12/05 01:08:12;;;;;;;49.37;42.30;;;;;;;1.56;100.00;101599.75;4960054;28;20065;-86
2022/12/05 01:10:37;;;;;;;48.53;42.10;;;;;;;1.58;100.00;101603.09;4952748;28;20045;-88
2022/12/05 01:13:02;;;;;;;50.27;41.77;;;;;;;1.50;100.00;101591.28;4924565;28;20070;-88
2022/12/05 01:15:28;;;;;;;50.03;40.70;;;;;;;1.58;100.00;101598.63;4938024;28;20050;-87
2022/12/05 01:17:53;;;;;;;47.90;40.67;;;;;;;1.62;100.00;101612.53;4953321;28;20130;-85
2022/12/05 01:20:18;;;;;;;50.53;42.10;;;;;;;1.58;100.00;101597.75;4952835;28;20134;-86
2022/12/05 01:22:44;;;;;;;48.17;40.33;;;;;;;1.66;100.00;101614.00;4952717;28;20070;-85
2022/12/05 01:25:09;;;;;;;48.90;41.73;;;;;;;1.60;100.00;101610.00;4952664;28;20066;-85
2022/12/05 01:27:35;;;;;;;49.73;41.80;;;;;;;1.67;100.00;101624.53;4940574;28;20050;-85
2022/12/05 01:30:00;;;;;;;50.67;41.90;;;;;;;1.67;100.00;101621.88;4952864;28;20047;-85
2022/12/05 01:32:26;;;;;;;50.00;40.67;;;;;;;1.74;100.00;101618.63;4953544;28;20093;-84
2022/12/05 01:34:51;;;;;;;47.23;40.63;;;;;;;1.74;100.00;101627.53;4941376;28;20050;-87
2022/12/05 01:37:16;;;;;;;49.80;42.13;;;;;;;1.75;100.00;101625.69;4941306;28;20038;-86
2022/12/05 01:39:42;;;;;;;50.03;40.13;;;;;;;1.73;100.00;101623.16;4952636;28;20050;-85
2022/12/05 01:42:07;;;;;;;46.90;39.63;;;;;;;1.77;100.00;101635.25;4938985;28;20058;-84
2022/12/05 01:44:33;;;;;;;47.93;40.80;;;;;;;1.81;100.00;101635.81;4952779;28;20399;-85
2022/12/05 01:46:58;;;;;;;47.13;40.53;;;;;;;1.81;100.00;101638.50;4952499;28;20055;-84
2022/12/05 01:49:40;;;;;;;47.10;40.20;;;;;;;1.86;100.00;101636.25;4952301;28;20132;-85
2022/12/05 01:52:22;;;;;;;48.17;40.07;;;;;;;1.83;100.00;101639.22;4940515;28;20178;-88
2022/12/05 01:54:53;;;;;;;47.73;40.93;;;;;;;1.81;100.00;101647.38;4934287;28;20035;-86
2022/12/05 01:57:18;;;;;;;47.43;40.03;;;;;;;1.79;100.00;101632.44;4952398;28;20138;-84
2022/12/05 01:59:50;;;;;;;47.57;39.27;;;;;;;1.81;100.00;101647.38;4933948;28;20600;-87
2022/12/05 02:02:16;;;;;;;47.63;39.97;;;;;;;1.81;100.00;101647.38;4952710;28;20480;-85
2022/12/05 02:05:06;;;;;;;49.40;40.43;;;;;;;1.85;100.00;101643.44;4951842;28;20045;-85
2022/12/05 02:07:32;;;;;;;48.03;39.63;;;;;;;1.77;100.00;101640.59;4952141;28;20261;-86
2022/12/05 02:09:58;;;;;;;49.37;41.47;;;;;;;1.71;100.00;101635.78;4952241;28;20580;-87
2022/12/05 02:12:24;;;;;;;50.43;41.73;;;;;;;1.70;100.00;101623.44;4952371;28;20056;-85
2022/12/05 02:15:10;;;;;;;47.87;40.80;;;;;;;1.85;100.00;101639.94;4947619;28;20046;-87
2022/12/05 02:17:53;;;;;;;50.23;40.77;;;;;;;1.87;100.00;101645.16;4952215;28;20043;-87
2022/12/05 02:20:41;;;;;;;50.00;41.50;;;;;;;1.85;100.00;101645.28;4934226;28;20038;-87
2022/12/05 02:23:35;;;;;;;48.60;40.37;;;;;;;1.87;100.00;101637.13;4952650;28;20077;-86
2022/12/05 02:26:17;;;;;;;50.47;40.43;;;;;;;1.93;100.00;101642.78;4952258;28;20039;-84
2022/12/05 02:29:08;;;;;;;49.37;40.57;;;;;;;1.91;100.00;101643.91;4951860;28;20049;-86
2022/12/05 02:31:41;;;;;;;50.20;40.90;;;;;;;1.89;100.00;101645.84;4951934;28;20045;-88
2022/12/05 02:34:24;;;;;;;49.97;41.20;;;;;;;1.82;100.00;101635.72;4949718;28;20035;-86
2022/12/05 02:37:04;;;;;;;49.60;39.67;;;;;;;1.81;100.00;101635.81;4951347;28;20042;-85
2022/12/05 02:39:56;;;;;;;51.57;40.73;;;;;;;1.85;100.00;101632.75;4951643;28;20035;-85
2022/12/05 02:42:31;;;;;;;48.80;40.07;;;;;;;1.91;100.00;101635.88;4951338;28;20058;-86
2022/12/05 02:45:04;;;;;;;50.37;39.97;;;;;;;1.85;100.00;101631.94;4951097;28;20720;-87
2022/12/05 02:47:34;;;;;;;47.60;39.80;;;;;;;1.93;100.00;101637.44;4952870;28;20137;-86
2022/12/05 02:50:00;;;;;;;51.13;40.80;;;;;;;1.88;100.00;101641.47;4950392;28;20070;-86
2022/12/05 02:52:27;;;;;;;51.90;40.83;;;;;;;1.91;100.00;101642.06;4949401;28;21876;-86
2022/12/05 02:54:54;;;;;;;49.77;41.20;;;;;;;1.90;100.00;101634.19;4950490;28;20046;-87
2022/12/05 02:57:21;;;;;;;51.67;41.83;;;;;;;1.91;100.00;101641.22;4947964;28;20558;-85
2022/12/05 02:59:46;;;;;;;49.77;41.63;;;;;;;1.91;100.00;101641.22;4949936;28;20121;-87
2022/12/05 03:02:44;;;;;;;49.60;41.00;;;;;;;1.96;100.00;101650.53;4950281;28;20045;-85
2022/12/05 03:05:34;;;;;;;53.50;41.87;;;;;;;1.95;100.00;101645.31;4920480;28;20406;-87
2022/12/05 03:08:03;;;;;;;51.77;42.00;;;;;;;1.91;100.00;101654.59;4950139;28;20085;-87
2022/12/05 03:10:30;;;;;;;52.37;41.57;;;;;;;1.87;100.00;101647.81;4956928;28;20038;-87
2022/12/05 03:13:04;;;;;;;52.57;41.87;;;;;;;1.88;100.00;101646.81;4932194;28;20070;-85
2022/12/05 03:15:42;;;;;;;52.33;42.43;;;;;;;1.87;100.00;101645.97;4949671;28;20546;-87
2022/12/05 03:18:24;;;;;;;54.20;42.80;;;;;;;1.94;100.00;101648.97;4947293;28;20039;-86
2022/12/05 03:20:58;;;;;;;54.13;42.10;;;;;;;1.90;100.00;101651.03;4949634;28;20039;-85
2022/12/05 03:23:42;;;;;;;52.73;41.67;;;;;;;1.84;100.00;101636.41;4950094;28;20045;-88
2022/12/05 03:26:46;;;;;;;51.97;41.07;;;;;;;1.94;100.00;101627.56;4950142;28;20043;-86
2022/12/05 03:29:42;;;;;;;52.83;42.45;;;;;;;1.91;100.00;101642.06;4949874;28;20031;-86
2022/12/05 03:32:25;;;;;;;54.13;42.87;;;;;;;1.88;100.00;101647.69;4950805;28;20038;-86
2022/12/05 03:35:25;;;;;;;60.87;43.70;;;;;;;1.82;100.00;101633.03;4950486;28;20701;-87
2022/12/05 03:38:21;;;;;;;54.53;43.70;;;;;;;1.73;100.00;101614.28;4930804;28;20570;-87
2022/12/05 03:41:00;;;;;;;54.13;43.17;;;;;;;1.68;100.00;101618.19;4949726;28;20082;-85
2022/12/05 03:43:33;;;;;;;57.07;44.33;;;;;;;1.90;100.00;101644.88;4945808;28;20601;-85
